Time;durP1;ratioP1;P1;durP2;ratioP2;P2;SDS_P1;SDS_P2;PMS_P1;PMS_P2;Temp;Humidity;BMP_temperature;BMP_pressure;BME280_temperature;BME280_humidity;BME280_pressure;Samples;Min_cycle;Max_cycle;Signal;HPM_P1;HPM_P2
2021/08/07 00:01:11;;;;;;;11.13;2.77;;;;;;;14.38;77.90;99372.47;125685;1096;22861;-80
2021/08/07 00:03:43;;;;;;;9.90;2.70;;;;;;;14.35;78.04;99379.13;125699;1096;22780;-78
2021/08/07 00:06:16;;;;;;;11.30;3.40;;;;;;;14.30;77.66;99377.12;125687;1095;22851;-77
2021/08/07 00:08:48;;;;;;;10.37;3.03;;;;;;;14.26;77.87;99380.20;125678;1096;23653;-80
2021/08/07 00:11:19;;;;;;;12.25;2.85;;;;;;;14.23;78.07;99374.88;125705;1096;25350;-77
2021/08/07 00:13:51;;;;;;;9.30;2.30;;;;;;;14.21;77.89;99374.64;125704;1096;22739;-77
2021/08/07 00:16:22;;;;;;;8.35;2.35;;;;;;;14.17;78.10;99368.56;125699;1096;22861;-77
2021/08/07 00:18:54;;;;;;;10.10;2.60;;;;;;;14.13;78.10;99371.63;125739;1095;26978;-79
2021/08/07 00:21:36;;;;;;;11.13;2.35;;;;;;;14.10;78.04;99371.93;125687;1096;22861;-79
2021/08/07 00:24:07;;;;;;;12.30;3.55;;;;;;;14.09;78.53;99376.03;125860;1096;26293;-77
2021/08/07 00:26:40;;;;;;;10.00;2.83;;;;;;;14.05;78.36;99375.56;125735;1096;22797;-77
2021/08/07 00:29:11;;;;;;;9.90;2.70;;;;;;;14.03;78.27;99375.33;125746;1096;22825;-77
2021/08/07 00:31:42;;;;;;;10.35;2.65;;;;;;;14.02;78.24;99366.14;125729;1096;22810;-77
2021/08/07 00:34:16;;;;;;;9.10;2.60;;;;;;;14.00;78.36;99365.14;125693;1096;22797;-79
2021/08/07 00:36:48;;;;;;;10.30;2.70;;;;;;;13.99;78.47;99369.24;125781;1094;27288;-79
2021/08/07 00:39:20;;;;;;;12.10;2.93;;;;;;;13.97;78.83;99371.78;125623;1096;22861;-77
2021/08/07 00:41:52;;;;;;;9.00;3.00;;;;;;;13.95;78.69;99369.51;125764;1096;22842;-77
2021/08/07 00:44:23;;;;;;;11.05;3.65;;;;;;;13.94;78.85;99372.84;125723;1096;22839;-77
2021/08/07 00:46:55;;;;;;;8.20;2.55;;;;;;;13.93;78.94;99368.50;125779;1095;22829;-78
2021/08/07 00:49:26;;;;;;;11.15;3.30;;;;;;;13.93;78.82;99365.69;125742;1096;22755;-77
2021/08/07 00:51:57;;;;;;;8.60;3.00;;;;;;;13.91;78.77;99371.84;125740;1096;22807;-77
2021/08/07 00:54:29;;;;;;;8.35;2.55;;;;;;;13.90;78.71;99372.38;125670;1096;27760;-80
2021/08/07 00:57:00;;;;;;;7.40;2.70;;;;;;;13.88;79.05;99378.51;125742;1096;22787;-78
2021/08/07 00:59:31;;;;;;;10.70;3.05;;;;;;;13.87;79.30;99374.17;125731;1096;22977;-78
2021/08/07 01:02:09;;;;;;;9.87;2.70;;;;;;;13.88;79.15;99377.74;125651;1096;22897;-79
2021/08/07 01:04:46;;;;;;;9.00;2.70;;;;;;;13.88;79.26;99374.94;125693;1096;24337;-78
2021/08/07 01:07:29;;;;;;;9.85;2.80;;;;;;;13.88;79.56;99374.94;125933;1096;22796;-78
2021/08/07 01:10:07;;;;;;;8.00;2.53;;;;;;;13.90;79.84;99377.98;125744;1096;22804;-78
2021/08/07 01:12:48;;;;;;;7.95;2.55;;;;;;;13.94;79.77;99384.84;125747;1095;23935;-77
2021/08/07 01:15:24;;;;;;;7.73;2.20;;;;;;;13.96;79.93;99381.50;125888;1096;26321;-78
2021/08/07 01:17:57;;;;;;;11.37;3.10;;;;;;;13.99;80.20;99381.20;125757;1096;27219;-78
2021/08/07 01:20:33;;;;;;;8.00;2.50;;;;;;;14.03;79.95;99381.68;125738;1096;24452;-78
2021/08/07 01:23:10;;;;;;;9.00;3.05;;;;;;;14.06;80.57;99377.07;125746;1096;26008;-77
2021/08/07 01:25:51;;;;;;;9.50;2.50;;;;;;;14.08;80.47;99386.50;125863;1095;28365;-77
2021/08/07 01:28:24;;;;;;;9.10;2.55;;;;;;;14.07;80.46;99387.77;125814;1096;24483;-77
2021/08/07 01:30:57;;;;;;;8.35;2.40;;;;;;;14.09;80.32;99385.20;125777;1096;22813;-77
2021/08/07 01:33:33;;;;;;;9.90;2.40;;;;;;;14.09;80.51;99393.62;125793;1096;24500;-78
2021/08/07 01:36:06;;;;;;;6.65;2.45;;;;;;;14.09;80.62;99388.00;125848;1096;22831;-77
2021/08/07 01:38:38;;;;;;;7.90;2.45;;;;;;;14.09;80.73;99392.88;125696;1096;27224;-77
2021/08/07 01:41:18;;;;;;;9.50;2.50;;;;;;;14.09;80.16;99385.20;125747;1096;27652;-78
2021/08/07 01:43:50;;;;;;;7.18;2.38;;;;;;;14.09;80.75;99385.20;125791;1096;23423;-77
2021/08/07 01:46:26;;;;;;;7.10;2.40;;;;;;;14.10;80.33;99385.97;125718;1096;26385;-77
2021/08/07 01:49:02;;;;;;;8.05;2.40;;;;;;;14.09;80.11;99396.42;125711;1096;22738;-78
2021/08/07 01:51:41;;;;;;;7.85;2.60;;;;;;;14.09;80.25;99395.69;125698;1096;22803;-79
2021/08/07 01:54:12;;;;;;;;;;;;;;;14.09;80.35;99384.45;125942;1096;22835;-77
2021/08/07 01:56:46;;;;;;;13.20;2.80;;;;;;;14.08;80.64;99386.50;125717;1096;21476;-78
2021/08/07 01:59:19;;;;;;;13.60;2.63;;;;;;;14.06;80.34;99386.26;125816;1096;27789;-78
2021/08/07 02:01:52;;;;;;;10.40;2.70;;;;;;;14.04;80.39;99388.06;125647;1095;23630;-78
2021/08/07 02:04:25;;;;;;;12.35;2.65;;;;;;;14.01;80.34;99389.13;125732;1096;22773;-78
2021/08/07 02:06:58;;;;;;;10.90;2.70;;;;;;;13.97;80.47;99380.97;125712;1096;25880;-81
2021/08/07 02:09:30;;;;;;;8.20;2.50;;;;;;;13.95;80.64;99379.96;125673;1095;22797;-78
2021/08/07 02:12:05;;;;;;;9.40;2.50;;;;;;;13.94;80.55;99386.88;125682;1096;22867;-79
2021/08/07 02:14:39;;;;;;;9.25;2.65;;;;;;;13.93;80.48;99390.95;125709;1096;22786;-78
2021/08/07 02:17:12;;;;;;;9.20;2.40;;;;;;;13.90;80.68;99387.16;125757;1095;22809;-78
2021/08/07 02:19:44;;;;;;;8.25;2.35;;;;;;;13.87;80.43;99395.84;125616;1096;22825;-79
2021/08/07 02:22:20;;;;;;;8.10;2.80;;;;;;;13.87;80.64;99395.84;125902;1096;22800;-80
2021/08/07 02:24:51;;;;;;;7.50;2.70;;;;;;;13.83;80.80;99389.76;125841;1096;22943;-78
2021/08/07 02:27:24;;;;;;;10.67;2.83;;;;;;;13.79;80.61;99402.04;125674;1096;27530;-78
2021/08/07 02:29:55;;;;;;;10.20;3.15;;;;;;;13.76;80.89;99396.69;125718;1095;22810;-78
2021/08/07 02:32:27;;;;;;;12.70;3.30;;;;;;;13.74;80.63;99390.84;125673;1096;22762;-78
2021/08/07 02:34:59;;;;;;;7.90;2.60;;;;;;;13.72;80.42;99385.75;125688;1096;24564;-79
2021/08/07 02:37:31;;;;;;;8.20;2.70;;;;;;;13.69;80.55;99389.63;125656;1096;24951;-79
2021/08/07 02:40:04;;;;;;;7.10;2.20;;;;;;;13.68;80.73;99393.69;125680;1096;26050;-79
2021/08/07 02:42:39;;;;;;;12.00;3.10;;;;;;;13.65;80.49;99396.78;125727;1096;25970;-78
2021/08/07 02:45:13;;;;;;;11.77;2.60;;;;;;;13.63;80.45;99399.34;125787;1095;27487;-78
2021/08/07 02:47:46;;;;;;;6.67;2.53;;;;;;;13.58;80.77;99395.30;125665;1096;22819;-79
2021/08/07 02:50:19;;;;;;;9.23;2.93;;;;;;;13.55;80.81;99401.93;125663;1096;22790;-79
2021/08/07 02:52:53;;;;;;;9.95;2.40;;;;;;;13.51;80.50;99406.31;125633;1096;22886;-78
2021/08/07 02:55:25;;;;;;;7.67;2.47;;;;;;;13.47;80.45;99412.18;125746;1096;22776;-79
2021/08/07 02:57:57;;;;;;;8.70;2.55;;;;;;;13.44;80.52;99404.05;125639;1096;22915;-79
2021/08/07 03:00:28;;;;;;;7.07;2.23;;;;;;;13.41;80.42;99405.08;125728;1096;24468;-81
2021/08/07 03:03:00;;;;;;;9.00;2.70;;;;;;;13.39;80.44;99399.23;125697;1096;26249;-77
2021/08/07 03:05:33;;;;;;;8.65;2.50;;;;;;;13.36;80.66;99398.24;125753;1096;23729;-77
2021/08/07 03:08:05;;;;;;;11.25;2.70;;;;;;;13.36;80.74;99400.28;125673;1096;22840;-78
2021/08/07 03:10:37;;;;;;;9.40;2.60;;;;;;;13.32;80.75;99396.99;125792;1096;26002;-77
2021/08/07 03:13:09;;;;;;;10.55;2.60;;;;;;;13.31;80.89;99409.47;125650;1096;22940;-77
2021/08/07 03:15:41;;;;;;;8.85;2.10;;;;;;;13.28;80.67;99408.48;125655;1096;27092;-79
2021/08/07 03:18:12;;;;;;;11.67;2.70;;;;;;;13.25;80.80;99409.51;125649;1096;22797;-77
2021/08/07 03:20:43;;;;;;;10.07;3.10;;;;;;;13.23;80.71;99408.49;125713;1096;25990;-78
2021/08/07 03:23:14;;;;;;;9.97;3.40;;;;;;;13.21;80.87;99414.63;125718;1096;22819;-78
2021/08/07 03:25:45;;;;;;;13.80;3.10;;;;;;;13.20;80.79;99417.95;125700;1096;22800;-78
2021/08/07 03:28:16;;;;;;;10.25;3.45;;;;;;;13.17;80.78;99414.14;125712;1096;22871;-78
2021/08/07 03:30:49;;;;;;;10.43;3.57;;;;;;;13.15;80.51;99415.92;125675;1096;22800;-78
2021/08/07 03:33:20;;;;;;;12.40;3.40;;;;;;;13.14;80.78;99420.77;125663;1096;22828;-77
2021/08/07 03:35:51;;;;;;;13.65;3.85;;;;;;;13.12;81.12;99414.17;125665;1096;23944;-80
2021/08/07 03:38:22;;;;;;;10.75;3.40;;;;;;;13.11;80.86;99415.44;125727;1096;22793;-78
2021/08/07 03:40:55;;;;;;;8.80;3.25;;;;;;;13.10;81.26;99419.53;125716;1096;23617;-81
2021/08/07 03:43:26;;;;;;;10.55;3.50;;;;;;;13.11;81.42;99421.81;125677;1096;22827;-77
2021/08/07 03:45:57;;;;;;;8.53;2.80;;;;;;;13.12;81.97;99417.71;125742;1096;26252;-79
2021/08/07 03:48:28;;;;;;;9.50;2.93;;;;;;;13.15;81.55;99421.53;125735;1096;26416;-78
2021/08/07 03:51:00;;;;;;;10.50;3.10;;;;;;;13.15;81.34;99413.89;125758;1096;22806;-79
2021/08/07 03:53:31;;;;;;;9.70;2.80;;;;;;;13.16;81.65;99423.06;125751;1096;22792;-78
2021/08/07 03:56:02;;;;;;;9.00;2.80;;;;;;;13.16;81.46;99418.20;125768;1096;27705;-78
2021/08/07 03:58:34;;;;;;;9.45;2.95;;;;;;;13.16;81.59;99423.81;125713;1096;22834;-77
2021/08/07 04:01:06;;;;;;;9.25;2.85;;;;;;;13.15;81.60;99425.10;125757;1096;23523;-77
2021/08/07 04:03:38;;;;;;;10.85;2.65;;;;;;;13.16;81.69;99431.48;125801;1096;22824;-78
2021/08/07 04:06:10;;;;;;;9.75;2.50;;;;;;;13.17;81.93;99432.98;125830;1096;22899;-77
2021/08/07 04:08:43;;;;;;;8.85;3.10;;;;;;;13.18;82.02;99426.86;125716;1095;26346;-77
2021/08/07 04:11:14;;;;;;;7.97;2.80;;;;;;;13.21;81.52;99425.06;125757;1096;22882;-77
2021/08/07 04:13:45;;;;;;;9.70;2.65;;;;;;;13.21;82.18;99420.23;125726;1095;22828;-77
2021/08/07 04:16:17;;;;;;;11.83;3.57;;;;;;;13.23;82.13;99428.11;125763;1096;23706;-79
2021/08/07 04:18:48;;;;;;;10.40;2.57;;;;;;;13.26;82.37;99438.30;125879;1096;26369;-77
2021/08/07 04:21:20;;;;;;;11.40;3.10;;;;;;;13.26;82.08;99429.89;125764;1096;22903;-77
2021/08/07 04:23:52;;;;;;;9.33;2.90;;;;;;;13.28;82.51;99435.75;125734;1096;25877;-78
2021/08/07 04:26:24;;;;;;;10.15;3.35;;;;;;;13.30;82.27;99439.56;125724;1096;22904;-79
2021/08/07 04:28:55;;;;;;;8.85;3.00;;;;;;;13.35;82.76;99429.58;125782;1096;22793;-79
2021/08/07 04:31:32;;;;;;;8.95;3.00;;;;;;;13.40;82.64;99428.80;125794;1095;24606;-78
2021/08/07 04:34:03;;;;;;;12.53;3.23;;;;;;;13.47;83.26;99431.06;125727;1096;22774;-79
2021/08/07 04:36:35;;;;;;;10.25;3.40;;;;;;;13.51;83.69;99428.75;125748;1096;23437;-78
2021/08/07 04:39:06;;;;;;;8.80;3.05;;;;;;;13.57;83.66;99430.22;125748;1096;22931;-79
2021/08/07 04:41:40;;;;;;;9.77;3.40;;;;;;;13.64;83.46;99434.52;125716;1096;22948;-79
2021/08/07 04:44:12;;;;;;;9.40;2.90;;;;;;;13.71;83.36;99434.73;125769;1096;22771;-77
2021/08/07 04:46:44;;;;;;;9.40;3.10;;;;;;;13.78;83.55;99436.20;125771;1096;24324;-78
2021/08/07 04:49:16;;;;;;;10.40;3.35;;;;;;;13.84;83.91;99436.18;125754;1096;26965;-77
2021/08/07 04:51:49;;;;;;;9.65;3.65;;;;;;;13.90;83.74;99432.06;125753;1096;22813;-78
2021/08/07 04:54:21;;;;;;;10.20;3.15;;;;;;;13.99;84.10;99442.20;125750;1096;22830;-77
2021/08/07 04:56:54;;;;;;;10.87;4.13;;;;;;;14.07;84.21;99443.16;125758;1096;27344;-80
2021/08/07 04:59:26;;;;;;;13.00;3.35;;;;;;;14.13;84.60;99441.80;125802;1097;22883;-77
2021/08/07 05:01:57;;;;;;;15.87;4.00;;;;;;;14.22;84.61;99441.48;125716;1096;25879;-78
2021/08/07 05:04:28;;;;;;;12.25;3.50;;;;;;;14.31;84.69;99444.00;125692;1095;22827;-78
2021/08/07 05:07:01;;;;;;;13.60;3.35;;;;;;;14.41;84.86;99438.80;125704;1096;22811;-79
2021/08/07 05:09:33;;;;;;;16.45;4.20;;;;;;;14.50;85.37;99446.89;125661;1096;22871;-77
2021/08/07 05:12:04;;;;;;;12.85;3.65;;;;;;;14.59;85.07;99438.88;125664;1096;22814;-79
2021/08/07 05:14:37;;;;;;;11.60;3.10;;;;;;;14.71;85.25;99444.39;125700;1095;22946;-77
2021/08/07 05:17:08;;;;;;;10.30;3.25;;;;;;;14.80;85.93;99444.78;125785;1095;22954;-79
2021/08/07 05:19:39;;;;;;;11.10;3.10;;;;;;;14.91;85.64;99446.72;125715;1096;22905;-78
2021/08/07 05:22:10;;;;;;;9.50;2.50;;;;;;;15.01;85.70;99445.83;125772;1096;22863;-78
2021/08/07 05:24:42;;;;;;;7.60;2.65;;;;;;;15.12;85.66;99450.56;125775;1096;22797;-78
2021/08/07 05:27:14;;;;;;;8.30;2.37;;;;;;;15.21;85.40;99456.57;125764;1096;22931;-78
2021/08/07 05:29:47;;;;;;;7.55;2.90;;;;;;;15.33;85.39;99465.65;125804;1096;22905;-78
2021/08/07 05:32:18;;;;;;;6.83;2.73;;;;;;;15.42;85.02;99462.44;126040;1096;22798;-77
2021/08/07 05:34:50;;;;;;;6.83;2.50;;;;;;;15.53;85.63;99464.38;125727;1096;24601;-77
2021/08/07 05:37:21;;;;;;;6.80;2.60;;;;;;;15.65;85.59;99471.38;125773;1095;22813;-77
2021/08/07 05:39:53;;;;;;;7.93;2.53;;;;;;;15.75;85.22;99461.25;125728;1096;22786;-78
2021/08/07 05:42:24;;;;;;;8.68;2.43;;;;;;;15.84;85.29;99464.45;125726;1096;26909;-78
2021/08/07 05:44:55;;;;;;;7.05;2.10;;;;;;;15.98;85.57;99468.08;125895;1096;22807;-79
2021/08/07 05:47:29;;;;;;;6.33;2.10;;;;;;;16.08;85.24;99472.78;125726;1096;29153;-78
2021/08/07 05:50:01;;;;;;;8.10;2.10;;;;;;;16.19;84.90;99471.85;125894;1096;26012;-78
2021/08/07 05:52:34;;;;;;;6.40;2.30;;;;;;;16.32;85.25;99476.77;125699;1096;24484;-78
2021/08/07 05:55:06;;;;;;;6.70;1.80;;;;;;;16.44;85.36;99469.65;125691;1096;22799;-78
2021/08/07 05:57:38;;;;;;;6.50;1.73;;;;;;;16.57;85.08;99472.53;125990;1096;22931;-78
2021/08/07 06:00:12;;;;;;;9.00;2.30;;;;;;;16.68;84.68;99483.59;125673;1096;22804;-79
2021/08/07 06:02:47;;;;;;;7.30;2.00;;;;;;;16.80;84.97;99482.86;125767;1095;22865;-78
2021/08/07 06:05:20;;;;;;;7.05;1.75;;;;;;;16.94;84.77;99481.59;125810;1096;22787;-78
2021/08/07 06:07:53;;;;;;;5.55;1.40;;;;;;;17.06;84.33;99476.48;125758;1096;23451;-78
2021/08/07 06:10:25;;;;;;;6.60;1.47;;;;;;;17.17;84.54;99484.74;125758;1095;22865;-78
2021/08/07 06:12:58;;;;;;;6.85;1.60;;;;;;;17.30;84.24;99475.52;125760;1096;24786;-78
2021/08/07 06:15:29;;;;;;;7.23;1.73;;;;;;;17.43;84.02;99483.94;125768;1095;22873;-80
2021/08/07 06:18:01;;;;;;;5.80;1.80;;;;;;;17.51;83.43;99473.54;125778;1096;24440;-78
2021/08/07 06:20:32;;;;;;;7.70;1.30;;;;;;;17.63;83.46;99475.58;125668;1096;22877;-78
2021/08/07 06:23:12;;;;;;;5.17;1.60;;;;;;;17.73;83.14;99478.72;125734;1096;22858;-80
2021/08/07 06:25:45;;;;;;;3.85;1.30;;;;;;;17.83;83.26;99476.95;125716;1096;23330;-78
2021/08/07 06:28:17;;;;;;;5.50;1.40;;;;;;;17.94;82.84;99482.33;125740;1096;22777;-79
2021/08/07 06:30:49;;;;;;;6.45;1.40;;;;;;;18.06;82.25;99480.79;125773;1096;26567;-80
2021/08/07 06:33:21;;;;;;;4.30;1.10;;;;;;;18.20;81.57;99485.07;125703;1095;22868;-78
2021/08/07 06:35:52;;;;;;;5.33;1.40;;;;;;;18.30;81.39;99488.94;125743;1096;28602;-78
2021/08/07 06:38:24;;;;;;;8.75;1.40;;;;;;;18.44;81.40;99496.06;125714;1096;22997;-78
2021/08/07 06:40:55;;;;;;;5.15;1.05;;;;;;;18.53;80.88;99495.59;125655;1096;22819;-78
2021/08/07 06:43:27;;;;;;;3.07;1.00;;;;;;;18.69;80.16;99501.35;125710;1096;26395;-80
2021/08/07 06:45:59;;;;;;;3.03;1.10;;;;;;;18.80;79.61;99499.02;125680;1096;22779;-79
2021/08/07 06:48:30;;;;;;;2.20;0.70;;;;;;;18.91;78.39;99501.53;125728;1096;22816;-78
2021/08/07 06:51:01;;;;;;;6.03;1.00;;;;;;;18.98;78.12;99497.24;125746;1096;22863;-78
2021/08/07 06:53:33;;;;;;;4.53;0.73;;;;;;;19.06;77.59;99503.70;125649;1096;22774;-80
2021/08/07 06:56:04;;;;;;;3.10;0.70;;;;;;;19.14;77.72;99504.54;125737;1096;26821;-78
2021/08/07 06:58:36;;;;;;;3.05;0.90;;;;;;;19.24;77.57;99497.80;125649;1096;24346;-78
2021/08/07 07:01:09;;;;;;;3.73;0.77;;;;;;;19.31;76.81;99499.92;125719;1096;22786;-79
2021/08/07 07:03:40;;;;;;;3.55;0.90;;;;;;;19.42;76.58;99500.95;125794;1096;22896;-78
2021/08/07 07:06:12;;;;;;;3.18;0.80;;;;;;;19.48;75.96;99501.54;125671;1095;22799;-78
2021/08/07 07:08:44;;;;;;;4.90;0.90;;;;;;;19.54;75.50;99511.39;125694;1096;22774;-78
2021/08/07 07:11:15;;;;;;;4.23;0.87;;;;;;;19.62;74.21;99520.68;125705;1096;22857;-81
2021/08/07 07:13:49;;;;;;;3.68;0.90;;;;;;;19.67;74.95;99511.27;125719;1096;22780;-78
2021/08/07 07:16:21;;;;;;;2.35;0.80;;;;;;;19.75;74.82;99517.73;125754;1096;27224;-78
2021/08/07 07:18:52;;;;;;;2.65;0.80;;;;;;;19.81;74.69;99521.14;125733;1096;22819;-78
2021/08/07 07:21:23;;;;;;;4.03;0.93;;;;;;;19.88;74.52;99514.00;125743;1096;27551;-77
2021/08/07 07:23:54;;;;;;;3.75;0.90;;;;;;;19.96;73.51;99511.95;125765;1096;27373;-79
2021/08/07 07:26:27;;;;;;;4.78;0.80;;;;;;;20.03;73.51;99508.37;125742;1096;22908;-79
2021/08/07 07:28:59;;;;;;;4.97;0.83;;;;;;;20.08;73.81;99496.11;125774;1096;22877;-78
2021/08/07 07:31:32;;;;;;;3.95;1.00;;;;;;;20.13;73.05;99509.36;125727;1096;22804;-78
2021/08/07 07:34:04;;;;;;;3.27;0.80;;;;;;;20.22;72.46;99513.73;125752;1096;23674;-80
2021/08/07 07:36:35;;;;;;;4.53;1.10;;;;;;;20.28;72.66;99515.08;125780;1095;22790;-78
2021/08/07 07:39:07;;;;;;;4.20;1.00;;;;;;;20.33;72.31;99514.16;125802;1096;22777;-77
2021/08/07 07:41:39;;;;;;;3.83;0.70;;;;;;;20.40;71.92;99519.06;125808;1096;22796;-78
2021/08/07 07:44:12;;;;;;;4.15;0.98;;;;;;;20.50;71.43;99510.78;125814;1096;22819;-80
2021/08/07 07:46:43;;;;;;;3.38;0.80;;;;;;;20.57;71.14;99510.77;125774;1096;24487;-78
2021/08/07 07:49:14;;;;;;;4.90;0.90;;;;;;;20.63;70.90;99521.95;125770;1096;22805;-78
2021/08/07 07:51:45;;;;;;;2.45;0.70;;;;;;;20.68;71.22;99520.99;125814;1096;22825;-78
2021/08/07 07:54:18;;;;;;;3.75;0.83;;;;;;;20.75;70.45;99520.98;125661;1095;26069;-78
2021/08/07 07:56:49;;;;;;;2.10;0.63;;;;;;;20.83;70.67;99523.84;125719;1096;22788;-78
2021/08/07 07:59:20;;;;;;;3.15;0.83;;;;;;;20.91;69.54;99528.20;125751;1096;22885;-78
2021/08/07 08:01:52;;;;;;;2.48;0.68;;;;;;;20.96;69.30;99529.30;125787;1096;27802;-79
2021/08/07 08:04:23;;;;;;;4.78;0.63;;;;;;;20.98;68.37;99529.52;125812;1096;22793;-78
2021/08/07 08:06:54;;;;;;;2.53;0.60;;;;;;;20.98;68.51;99525.92;125657;1096;22952;-78
2021/08/07 08:09:25;;;;;;;3.00;0.80;;;;;;;21.01;68.42;99524.77;125783;1096;22798;-78
2021/08/07 08:11:57;;;;;;;3.78;0.80;;;;;;;21.04;67.98;99524.44;125754;1096;23433;-78
2021/08/07 08:14:29;;;;;;;2.88;0.80;;;;;;;21.18;68.51;99522.13;125763;1096;22878;-79
2021/08/07 08:17:00;;;;;;;3.78;0.75;;;;;;;21.34;67.48;99518.70;125637;1096;25883;-80
2021/08/07 08:19:31;;;;;;;4.68;0.70;;;;;;;21.43;66.49;99523.04;125804;1096;22810;-79
2021/08/07 08:22:03;;;;;;;2.83;0.80;;;;;;;21.48;66.26;99525.66;125847;1096;22801;-78
2021/08/07 08:24:34;;;;;;;4.80;1.10;;;;;;;21.55;66.14;99512.77;125781;1096;22805;-78
2021/08/07 08:27:06;;;;;;;11.10;1.88;;;;;;;21.62;66.28;99526.94;125807;1096;22861;-78
2021/08/07 08:29:39;;;;;;;16.13;3.25;;;;;;;21.74;66.09;99524.45;125687;1096;22780;-78
2021/08/07 08:32:12;;;;;;;18.25;3.53;;;;;;;21.84;65.81;99527.47;125722;1096;22842;-80
2021/08/07 08:34:45;;;;;;;16.25;3.33;;;;;;;21.96;65.88;99525.70;125799;1096;22889;-78
2021/08/07 08:37:17;;;;;;;19.03;4.23;;;;;;;22.08;65.23;99519.02;126064;1096;27357;-78
2021/08/07 08:39:49;;;;;;;8.65;1.78;;;;;;;22.19;64.69;99527.12;125763;1096;25883;-77
2021/08/07 08:42:23;;;;;;;6.30;1.18;;;;;;;22.16;63.93;99533.20;125841;1096;22947;-77
2021/08/07 08:44:55;;;;;;;6.10;1.55;;;;;;;22.17;63.88;99529.02;125783;1096;23550;-78
2021/08/07 08:47:27;;;;;;;7.50;1.20;;;;;;;22.20;62.91;99522.92;125743;1096;22777;-78
2021/08/07 08:49:58;;;;;;;7.53;1.43;;;;;;;22.15;62.35;99528.84;125678;1096;22860;-79
2021/08/07 08:52:31;;;;;;;4.83;0.90;;;;;;;22.10;61.78;99529.83;125760;1096;22784;-78
2021/08/07 08:55:03;;;;;;;12.10;2.33;;;;;;;22.14;62.11;99530.19;125787;1096;22778;-78
2021/08/07 08:57:35;;;;;;;7.90;1.30;;;;;;;22.16;62.85;99528.25;125779;1096;26254;-78
2021/08/07 09:00:11;;;;;;;10.20;1.90;;;;;;;22.21;61.65;99532.22;125777;1096;22699;-79
2021/08/07 09:02:44;;;;;;;9.87;1.40;;;;;;;22.17;62.22;99534.70;125830;1096;25243;-79
2021/08/07 09:05:15;;;;;;;9.20;1.37;;;;;;;22.23;62.04;99538.08;125795;1096;22834;-78
2021/08/07 09:07:49;;;;;;;7.68;1.20;;;;;;;22.23;61.82;99535.23;125686;1096;22841;-78
2021/08/07 09:10:25;;;;;;;8.28;1.40;;;;;;;22.18;61.56;99530.55;125794;1096;22807;-78
2021/08/07 09:12:59;;;;;;;11.53;2.58;;;;;;;22.09;61.19;99528.30;125914;1096;22787;-78
2021/08/07 09:15:33;;;;;;;11.13;1.65;;;;;;;22.01;61.43;99533.27;125862;1096;22867;-78
2021/08/07 09:18:25;;;;;;;7.30;1.30;;;;;;;21.95;61.61;99529.89;125873;1096;22785;-78
2021/08/07 09:20:57;;;;;;;11.83;2.13;;;;;;;21.91;61.16;99527.45;125781;1096;22797;-78
2021/08/07 09:23:35;;;;;;;6.23;1.00;;;;;;;21.88;61.33;99513.63;125868;1096;22813;-78
2021/08/07 09:26:21;;;;;;;6.50;1.10;;;;;;;21.86;61.34;99516.28;125724;1096;22800;-79
2021/08/07 09:28:55;;;;;;;14.80;2.33;;;;;;;21.95;61.51;99519.29;125800;1096;22820;-78
2021/08/07 09:31:28;;;;;;;7.60;1.38;;;;;;;22.11;61.21;99522.80;126100;1096;26305;-78
2021/08/07 09:34:20;;;;;;;8.78;1.55;;;;;;;22.20;60.80;99517.23;125764;1096;22898;-79
2021/08/07 09:36:53;;;;;;;6.73;1.43;;;;;;;22.33;60.54;99507.69;125899;1096;22862;-80
2021/08/07 09:39:40;;;;;;;3.65;0.80;;;;;;;22.40;59.91;99512.58;125896;1096;22932;-79
2021/08/07 09:42:12;;;;;;;6.78;1.05;;;;;;;22.53;60.11;99503.78;125859;1096;22883;-78
2021/08/07 09:44:43;;;;;;;7.53;1.15;;;;;;;22.69;60.19;99501.59;125752;1096;22856;-78
2021/08/07 09:47:16;;;;;;;5.33;1.18;;;;;;;22.78;59.04;99500.95;125755;1095;22793;-78
2021/08/07 09:49:47;;;;;;;12.63;2.40;;;;;;;22.77;58.56;99508.73;125858;1096;26005;-80
2021/08/07 09:52:19;;;;;;;9.80;1.85;;;;;;;22.72;58.94;99500.44;125766;1096;22858;-78
2021/08/07 09:54:51;;;;;;;5.95;1.10;;;;;;;22.69;59.09;99504.44;125747;1096;22864;-79
2021/08/07 09:57:30;;;;;;;2.55;0.80;;;;;;;22.71;58.28;99501.77;125789;1096;23620;-79
2021/08/07 10:00:01;;;;;;;3.40;0.80;;;;;;;22.79;59.21;99508.91;125834;1096;27287;-78
2021/08/07 10:02:36;;;;;;;4.73;1.10;;;;;;;22.95;59.02;99506.67;125705;1096;24649;-78
2021/08/07 10:05:11;;;;;;;5.43;1.30;;;;;;;23.12;58.50;99510.31;125738;1096;22792;-78
2021/08/07 10:08:04;;;;;;;5.53;1.00;;;;;;;23.15;58.11;99514.83;125874;1096;24589;-78
2021/08/07 10:10:35;;;;;;;4.25;0.80;;;;;;;23.13;58.34;99508.97;125827;1096;22784;-79
2021/08/07 10:13:07;;;;;;;5.70;1.30;;;;;;;23.17;57.76;99517.84;125709;1096;25893;-78
2021/08/07 10:15:42;;;;;;;7.75;1.40;;;;;;;23.25;57.66;99521.39;125707;1096;22773;-80
2021/08/07 10:18:15;;;;;;;3.55;1.00;;;;;;;23.38;56.72;99517.50;125767;1096;22837;-78
2021/08/07 10:20:49;;;;;;;6.00;0.95;;;;;;;23.48;56.59;99509.80;125824;1096;22764;-78
2021/08/07 10:23:21;;;;;;;4.53;0.80;;;;;;;23.63;56.53;99521.00;125719;1096;22834;-79
2021/08/07 10:25:54;;;;;;;4.20;0.90;;;;;;;23.80;56.61;99518.14;125681;1096;22855;-79
2021/08/07 10:28:30;;;;;;;2.85;0.55;;;;;;;23.96;54.57;99510.17;125705;1096;22890;-79
2021/08/07 10:31:06;;;;;;;2.93;0.70;;;;;;;24.03;56.08;99512.94;125756;1096;25992;-79
2021/08/07 10:33:44;;;;;;;3.90;0.93;;;;;;;24.17;54.57;99513.31;125698;1096;22944;-79
2021/08/07 10:36:17;;;;;;;3.00;0.80;;;;;;;24.25;55.62;99516.81;125654;1095;22840;-78
2021/08/07 10:38:49;;;;;;;3.93;0.80;;;;;;;24.36;54.99;99513.42;125691;1096;22884;-79
2021/08/07 10:41:21;;;;;;;2.90;0.90;;;;;;;24.45;54.60;99521.30;125731;1096;25858;-78
2021/08/07 10:43:57;;;;;;;4.43;1.00;;;;;;;24.52;54.29;99517.55;125845;1096;27211;-78
2021/08/07 10:46:29;;;;;;;2.70;0.70;;;;;;;24.60;53.49;99517.45;126095;1096;22888;-78
2021/08/07 10:49:02;;;;;;;3.43;0.75;;;;;;;24.70;53.89;99512.53;125803;1096;22834;-79
2021/08/07 10:51:39;;;;;;;4.80;0.70;;;;;;;24.80;52.99;99511.25;126004;1096;22805;-79
2021/08/07 10:54:34;;;;;;;7.27;1.10;;;;;;;24.88;52.67;99509.02;125686;1095;27308;-78
2021/08/07 10:57:06;;;;;;;2.30;0.75;;;;;;;25.01;53.25;99507.09;125552;1099;22954;-78
2021/08/07 10:59:42;;;;;;;2.25;0.60;;;;;;;25.09;52.93;99499.14;125668;1100;23493;-78
2021/08/07 11:02:25;;;;;;;3.58;0.68;;;;;;;25.15;52.57;99499.61;125831;1100;22888;-78
2021/08/07 11:04:57;;;;;;;3.03;0.88;;;;;;;25.21;50.99;99494.35;125457;1097;22896;-79
2021/08/07 11:07:29;;;;;;;2.33;0.73;;;;;;;25.22;51.65;99484.45;125707;1100;23024;-78
2021/08/07 11:10:09;;;;;;;2.70;0.70;;;;;;;25.29;50.92;99483.53;125435;1099;23644;-78
2021/08/07 11:12:42;;;;;;;5.43;0.75;;;;;;;25.38;51.60;99477.09;125881;1099;23409;-78
2021/08/07 11:15:16;;;;;;;4.33;0.70;;;;;;;25.41;51.37;99470.94;125829;1100;22843;-78
2021/08/07 11:17:52;;;;;;;5.77;1.03;;;;;;;25.47;51.22;99470.66;125862;1100;23168;-78
2021/08/07 11:20:43;;;;;;;2.23;0.60;;;;;;;25.52;49.97;99466.73;125511;1098;22793;-78
2021/08/07 11:23:19;;;;;;;2.78;0.60;;;;;;;25.47;49.83;99464.95;125711;1099;22944;-78
2021/08/07 11:26:05;;;;;;;3.65;0.68;;;;;;;25.45;49.16;99459.08;125773;1099;22973;-78
2021/08/07 11:29:04;;;;;;;2.63;0.60;;;;;;;25.39;49.14;99456.48;125807;1098;26277;-80
2021/08/07 11:31:36;;;;;;;3.70;0.80;;;;;;;25.44;48.54;99466.14;125525;1099;22811;-78
2021/08/07 11:34:28;;;;;;;2.85;0.50;;;;;;;25.48;48.45;99469.30;125805;1097;22819;-78
2021/08/07 11:37:24;;;;;;;2.88;0.60;;;;;;;25.53;49.78;99465.39;125829;1095;22774;-79
2021/08/07 11:40:21;;;;;;;1.90;0.47;;;;;;;25.57;49.27;99471.41;125748;1096;22803;-79
2021/08/07 11:42:53;;;;;;;3.40;0.80;;;;;;;25.54;48.33;99469.73;125909;1096;26005;-79
2021/08/07 11:45:25;;;;;;;1.83;0.58;;;;;;;25.59;48.46;99471.55;125856;1096;22895;-79
2021/08/07 11:47:57;;;;;;;3.83;0.60;;;;;;;25.66;48.10;99465.67;125834;1096;27259;-78
2021/08/07 11:50:29;;;;;;;4.47;0.57;;;;;;;25.68;47.95;99470.78;126121;1096;22877;-79
2021/08/07 11:53:01;;;;;;;2.10;0.48;;;;;;;25.62;47.52;99468.23;125903;1095;22774;-79